createdAt,value
2022-12-11T00:00:25.351Z,19.60
2022-12-11T00:02:01.323Z,19.40
2022-12-11T00:03:33.248Z,19.30
2022-12-11T00:05:06.417Z,19.73
2022-12-11T00:06:39.834Z,19.73
2022-12-11T00:08:16.287Z,19.40
2022-12-11T00:09:51.845Z,18.33
2022-12-11T00:11:28.325Z,19.77
2022-12-11T00:13:01.477Z,20.00
2022-12-11T00:14:36.942Z,19.27
2022-12-11T00:16:13.204Z,19.63
2022-12-11T00:17:46.370Z,19.33
2022-12-11T00:19:21.501Z,18.83
2022-12-11T00:20:54.007Z,19.60
2022-12-11T00:22:26.481Z,20.23
2022-12-11T00:23:58.814Z,19.67
2022-12-11T00:25:31.510Z,19.70
2022-12-11T00:27:03.325Z,18.13
2022-12-11T00:28:35.627Z,20.30
2022-12-11T00:30:09.466Z,19.33
2022-12-11T00:31:50.558Z,19.80
2022-12-11T00:33:22.986Z,19.30
2022-12-11T00:34:55.130Z,19.93
2022-12-11T00:36:29.418Z,18.70
2022-12-11T00:38:02.390Z,18.10
2022-12-11T00:39:37.539Z,21.10
2022-12-11T00:41:13.635Z,19.53
2022-12-11T00:42:49.531Z,19.40
2022-12-11T00:44:25.443Z,19.03
2022-12-11T00:46:05.755Z,19.37
2022-12-11T00:47:38.000Z,20.43
2022-12-11T00:49:16.787Z,20.70
2022-12-11T00:50:49.167Z,20.03
2022-12-11T00:52:21.705Z,19.40
2022-12-11T00:53:54.241Z,19.63
2022-12-11T00:55:29.040Z,20.37
2022-12-11T00:57:01.387Z,19.63
2022-12-11T00:58:36.670Z,19.70
2022-12-11T01:00:14.873Z,21.07
2022-12-11T01:01:48.124Z,20.20
2022-12-11T01:03:20.597Z,20.30
2022-12-11T01:04:52.561Z,19.60
2022-12-11T01:06:29.439Z,19.90
2022-12-11T01:08:04.984Z,19.70
2022-12-11T01:09:55.817Z,19.37
2022-12-11T01:11:28.550Z,20.03
2022-12-11T01:13:06.436Z,20.53
2022-12-11T01:14:42.798Z,21.03
2022-12-11T01:16:28.118Z,20.83
2022-12-11T01:18:05.092Z,19.00
2022-12-11T01:19:37.529Z,21.60
2022-12-11T01:21:15.009Z,20.80
2022-12-11T01:22:47.429Z,20.67
2022-12-11T01:24:30.436Z,19.83
2022-12-11T01:26:14.769Z,21.37
2022-12-11T01:27:46.861Z,20.43
2022-12-11T01:29:18.819Z,20.67
2022-12-11T01:30:51.037Z,20.27
2022-12-11T01:32:23.267Z,20.80
2022-12-11T01:33:55.761Z,19.67
2022-12-11T01:35:27.769Z,19.57
2022-12-11T01:37:00.255Z,19.13
2022-12-11T01:38:34.533Z,20.30
2022-12-11T01:40:25.351Z,19.23
2022-12-11T01:42:02.039Z,20.33
2022-12-11T01:43:34.943Z,18.13
2022-12-11T01:45:30.709Z,20.77
2022-12-11T01:47:03.416Z,19.70
2022-12-11T01:48:41.986Z,19.57
2022-12-11T01:50:18.889Z,19.57
2022-12-11T01:52:23.097Z,20.83
2022-12-11T01:54:04.672Z,18.57
2022-12-11T01:55:39.477Z,20.57
2022-12-11T01:57:13.779Z,19.07
2022-12-11T01:59:00.809Z,19.90
2022-12-11T02:00:32.938Z,19.37
2022-12-11T02:02:26.438Z,18.77
2022-12-11T02:03:58.709Z,19.57
2022-12-11T02:05:30.313Z,19.53
2022-12-11T02:07:03.537Z,18.37
2022-12-11T02:08:35.205Z,18.20
2022-12-11T02:10:08.286Z,19.43
2022-12-11T02:11:55.245Z,19.00
2022-12-11T02:13:53.816Z,18.60
2022-12-11T02:15:37.794Z,19.00
2022-12-11T02:17:25.861Z,19.00
2022-12-11T02:19:10.011Z,19.27
2022-12-11T02:20:58.565Z,19.20
2022-12-11T02:22:42.071Z,19.37
2022-12-11T02:24:49.731Z,18.10
2022-12-11T02:26:24.305Z,17.83
2022-12-11T02:28:14.903Z,17.73
2022-12-11T02:30:07.883Z,19.57
2022-12-11T02:31:47.735Z,18.10
2022-12-11T02:33:26.008Z,19.73
2022-12-11T02:35:05.429Z,18.63
2022-12-11T02:36:41.868Z,17.97
2022-12-11T02:38:22.533Z,18.40
2022-12-11T02:39:56.036Z,17.60
2022-12-11T02:41:29.479Z,17.77
2022-12-11T02:43:05.664Z,18.03
2022-12-11T02:44:39.901Z,18.30
2022-12-11T02:46:13.582Z,19.10
2022-12-11T02:47:47.871Z,17.80
2022-12-11T02:49:21.394Z,17.63
2022-12-11T02:50:57.621Z,17.57
2022-12-11T02:52:32.680Z,17.50
2022-12-11T02:54:08.624Z,18.17
2022-12-11T02:55:41.764Z,18.47
2022-12-11T02:57:33.412Z,18.27
2022-12-11T02:59:12.872Z,17.70
2022-12-11T03:00:46.205Z,16.00
2022-12-11T03:02:18.782Z,16.70
2022-12-11T03:03:50.554Z,17.00
2022-12-11T03:05:22.286Z,17.33
2022-12-11T03:07:00.512Z,17.40
2022-12-11T03:08:32.529Z,17.03
2022-12-11T03:10:07.095Z,16.77
2022-12-11T03:11:38.761Z,16.80
2022-12-11T03:13:12.326Z,16.47
2022-12-11T03:14:44.090Z,17.30
2022-12-11T03:16:33.774Z,15.93
2022-12-11T03:18:19.007Z,15.30
2022-12-11T03:20:13.405Z,16.23
2022-12-11T03:22:09.802Z,16.60
2022-12-11T03:23:45.292Z,14.50
2022-12-11T03:25:20.072Z,14.63
2022-12-11T03:27:11.352Z,14.73
2022-12-11T03:28:56.177Z,16.07
2022-12-11T03:30:31.112Z,14.30
2022-12-11T03:32:19.743Z,15.23
2022-12-11T03:33:56.066Z,15.57
2022-12-11T03:35:47.559Z,15.60
2022-12-11T03:37:20.081Z,14.93
2022-12-11T03:38:56.425Z,15.13
2022-12-11T03:40:30.893Z,14.60
2022-12-11T03:42:06.377Z,14.67
2022-12-11T03:43:40.531Z,14.00
2022-12-11T03:45:14.233Z,14.70
2022-12-11T03:46:48.151Z,15.90
2022-12-11T03:48:21.802Z,14.50
2022-12-11T03:49:54.377Z,14.37
2022-12-11T03:51:26.851Z,14.40
2022-12-11T03:53:00.391Z,13.77
2022-12-11T03:54:33.727Z,15.37
2022-12-11T03:56:08.535Z,13.80
2022-12-11T03:57:40.823Z,14.47
2022-12-11T03:59:12.793Z,14.87
2022-12-11T04:00:44.504Z,13.47
2022-12-11T04:02:16.224Z,15.57
2022-12-11T04:03:47.836Z,14.30
2022-12-11T04:05:19.459Z,14.60
2022-12-11T04:06:51.357Z,14.43
2022-12-11T04:08:24.138Z,14.00
2022-12-11T04:09:55.795Z,14.50
2022-12-11T04:11:36.190Z,13.83
2022-12-11T04:13:09.487Z,14.33
2022-12-11T04:15:00.523Z,14.50
2022-12-11T04:16:32.179Z,15.20
2022-12-11T04:18:22.807Z,14.80
2022-12-11T04:20:13.312Z,15.37
2022-12-11T04:22:03.809Z,14.13
2022-12-11T04:23:54.328Z,14.90
2022-12-11T04:25:25.946Z,15.03
2022-12-11T04:26:57.559Z,15.70
2022-12-11T04:28:29.200Z,14.73
2022-12-11T04:30:00.880Z,15.83
2022-12-11T04:31:32.812Z,15.90
2022-12-11T04:33:04.843Z,14.63
2022-12-11T04:34:36.664Z,15.90
2022-12-11T04:36:09.968Z,15.90
2022-12-11T04:37:41.769Z,15.80
2022-12-11T04:39:13.487Z,15.47
2022-12-11T04:40:45.091Z,15.70
2022-12-11T04:42:16.726Z,15.30
2022-12-11T04:43:48.436Z,15.77
2022-12-11T04:45:20.079Z,15.90
2022-12-11T04:46:51.775Z,15.17
2022-12-11T04:48:23.405Z,16.90
2022-12-11T04:49:55.040Z,16.33
2022-12-11T04:51:28.208Z,16.87
2022-12-11T04:52:59.832Z,16.10
2022-12-11T04:54:32.182Z,16.30
2022-12-11T04:56:09.317Z,16.70
2022-12-11T04:57:41.305Z,16.13
2022-12-11T04:59:12.967Z,16.57
2022-12-11T05:00:44.649Z,15.63
2022-12-11T05:02:17.060Z,16.90
2022-12-11T05:03:49.003Z,18.07
2022-12-11T05:05:20.625Z,15.57
2022-12-11T05:06:52.312Z,15.90
2022-12-11T05:08:23.970Z,16.83
2022-12-11T05:09:55.602Z,17.30
2022-12-11T05:11:28.070Z,16.60
2022-12-11T05:12:59.765Z,16.63
2022-12-11T05:14:32.324Z,15.97
2022-12-11T05:16:05.998Z,16.20
2022-12-11T05:17:37.854Z,15.93
2022-12-11T05:19:09.711Z,16.30
2022-12-11T05:20:41.341Z,16.53
2022-12-11T05:22:12.939Z,16.30
2022-12-11T05:23:44.604Z,17.77
2022-12-11T05:25:16.318Z,16.60
2022-12-11T05:26:47.985Z,16.40
2022-12-11T05:28:19.678Z,16.17
2022-12-11T05:29:54.858Z,16.60
2022-12-11T05:31:30.859Z,16.57
2022-12-11T05:33:02.520Z,16.97
2022-12-11T05:34:34.221Z,17.73
2022-12-11T05:36:07.020Z,17.73
2022-12-11T05:37:38.664Z,15.67
2022-12-11T05:39:11.846Z,16.50
2022-12-11T05:40:43.581Z,16.67
2022-12-11T05:42:15.247Z,16.47
2022-12-11T05:43:47.054Z,15.67
2022-12-11T05:45:18.724Z,14.97
2022-12-11T05:46:50.421Z,15.47
2022-12-11T05:48:22.174Z,15.80
2022-12-11T05:49:53.803Z,15.40
2022-12-11T05:51:26.302Z,16.07
2022-12-11T05:52:57.926Z,16.83
2022-12-11T05:54:29.547Z,15.53
2022-12-11T05:56:06.819Z,15.50
2022-12-11T05:57:38.432Z,15.80
2022-12-11T05:59:10.231Z,16.00
2022-12-11T06:00:42.876Z,14.60
2022-12-11T06:02:14.691Z,14.80
2022-12-11T06:03:46.763Z,15.50
2022-12-11T06:05:18.448Z,15.60
2022-12-11T06:06:50.099Z,15.27
2022-12-11T06:08:21.800Z,16.93
2022-12-11T06:09:53.815Z,15.87
2022-12-11T06:11:28.120Z,15.27
2022-12-11T06:12:59.832Z,15.93
2022-12-11T06:14:31.519Z,14.10
2022-12-11T06:16:05.271Z,14.30
2022-12-11T06:17:36.948Z,14.77
2022-12-11T06:19:18.307Z,14.63
2022-12-11T06:20:49.945Z,15.87
2022-12-11T06:22:22.293Z,15.07
2022-12-11T06:23:55.708Z,16.10
2022-12-11T06:25:31.248Z,14.93
2022-12-11T06:27:02.921Z,15.03
2022-12-11T06:28:34.686Z,14.93
2022-12-11T06:30:07.026Z,13.63
2022-12-11T06:31:38.769Z,14.30
2022-12-11T06:33:10.502Z,14.60
2022-12-11T06:34:42.166Z,13.97
2022-12-11T06:36:19.528Z,13.60
2022-12-11T06:37:51.146Z,15.03
2022-12-11T06:39:22.837Z,14.03
2022-12-11T06:40:56.484Z,13.57
2022-12-11T06:42:30.561Z,12.80
2022-12-11T06:44:02.217Z,14.20
2022-12-11T06:45:33.900Z,14.20
2022-12-11T06:47:05.642Z,13.00
2022-12-11T06:48:37.881Z,13.13
2022-12-11T06:50:09.897Z,13.73
2022-12-11T06:51:41.553Z,13.00
2022-12-11T06:53:15.137Z,14.27
2022-12-11T06:54:46.807Z,14.30
2022-12-11T06:56:18.780Z,13.40
2022-12-11T06:57:50.442Z,12.90
2022-12-11T06:59:22.085Z,13.47
2022-12-11T07:00:53.727Z,13.67
2022-12-11T07:02:25.431Z,13.23
2022-12-11T07:03:59.003Z,12.90
2022-12-11T07:05:31.581Z,12.43
2022-12-11T07:07:03.219Z,11.60
2022-12-11T07:08:34.869Z,12.67
2022-12-11T07:10:08.599Z,13.47
2022-12-11T07:11:40.418Z,13.23
2022-12-11T07:13:12.038Z,12.13
2022-12-11T07:14:43.745Z,12.87
2022-12-11T07:16:16.714Z,12.77
2022-12-11T07:17:48.416Z,12.47
2022-12-11T07:19:20.037Z,12.27
2022-12-11T07:20:51.657Z,12.97
2022-12-11T07:22:23.339Z,11.60
2022-12-11T07:23:54.956Z,11.60
2022-12-11T07:25:26.590Z,12.50
2022-12-11T07:26:58.488Z,12.40
2022-12-11T07:28:30.156Z,12.20
2022-12-11T07:30:01.776Z,12.43
2022-12-11T07:31:33.571Z,13.10
2022-12-11T07:33:05.696Z,12.33
2022-12-11T07:34:37.524Z,12.07
2022-12-11T07:36:11.526Z,11.90
2022-12-11T07:37:43.360Z,11.70
2022-12-11T07:39:14.992Z,12.37
2022-12-11T07:40:46.682Z,12.07
2022-12-11T07:42:18.337Z,12.70
2022-12-11T07:43:50.444Z,11.63
2022-12-11T07:45:22.068Z,12.40
2022-12-11T07:46:53.712Z,12.27
2022-12-11T07:48:25.409Z,12.60
2022-12-11T07:49:57.014Z,11.10
2022-12-11T07:51:35.322Z,11.40
2022-12-11T07:53:07.611Z,11.30
2022-12-11T07:54:39.306Z,12.60
2022-12-11T07:56:11.760Z,11.60
2022-12-11T07:57:43.459Z,11.83
2022-12-11T07:59:16.501Z,12.17
2022-12-11T08:00:49.428Z,11.70
2022-12-11T08:02:24.686Z,11.30
2022-12-11T08:03:56.924Z,11.50
2022-12-11T08:05:28.909Z,11.27
2022-12-11T08:07:00.565Z,12.03
2022-12-11T08:08:32.414Z,11.33
2022-12-11T08:10:05.262Z,11.37
2022-12-11T08:11:39.704Z,10.60
2022-12-11T08:13:12.769Z,11.03
2022-12-11T08:14:44.515Z,10.30
2022-12-11T08:16:19.612Z,11.30
2022-12-11T08:17:53.409Z,10.33
2022-12-11T08:19:25.102Z,10.13
2022-12-11T08:20:56.707Z,10.17
2022-12-11T08:22:28.353Z,10.77
2022-12-11T08:24:00.008Z,10.70
2022-12-11T08:25:31.692Z,9.63
2022-12-11T08:27:03.380Z,11.30
2022-12-11T08:28:35.173Z,9.83
2022-12-11T08:30:07.470Z,10.00
2022-12-11T08:31:40.693Z,10.80
2022-12-11T08:33:12.342Z,12.97
2022-12-11T08:34:44.182Z,11.70
2022-12-11T08:36:18.478Z,12.73
2022-12-11T08:37:50.092Z,12.13
2022-12-11T08:39:21.734Z,12.27
2022-12-11T08:40:53.326Z,11.80
2022-12-11T08:42:25.038Z,10.60
2022-12-11T08:43:58.558Z,11.43
2022-12-11T08:45:30.216Z,10.57
2022-12-11T08:47:01.823Z,11.20
2022-12-11T08:48:34.525Z,12.40
2022-12-11T08:50:06.415Z,11.20
2022-12-11T08:51:38.511Z,10.33
2022-12-11T08:53:10.133Z,10.13
2022-12-11T08:54:42.075Z,10.10
2022-12-11T08:56:19.103Z,11.00
2022-12-11T08:57:50.834Z,10.53
2022-12-11T08:59:22.587Z,9.70
2022-12-11T09:00:54.298Z,10.10
2022-12-11T09:02:26.583Z,10.50
2022-12-11T09:03:58.710Z,10.13
2022-12-11T09:05:30.887Z,10.40
2022-12-11T09:07:02.682Z,11.43
2022-12-11T09:08:35.246Z,11.70
2022-12-11T09:10:08.522Z,11.17
2022-12-11T09:11:40.970Z,10.90
2022-12-11T09:13:12.875Z,11.47
2022-12-11T09:14:44.805Z,10.90
2022-12-11T09:16:19.018Z,11.30
2022-12-11T09:17:53.653Z,10.87
2022-12-11T09:19:31.900Z,10.53
2022-12-11T09:21:13.791Z,10.50
2022-12-11T09:22:45.830Z,11.03
2022-12-11T09:24:18.766Z,9.73
2022-12-11T09:25:50.447Z,10.40
2022-12-11T09:27:22.158Z,11.73
2022-12-11T09:28:54.820Z,10.70
2022-12-11T09:30:26.536Z,10.53
2022-12-11T09:31:58.429Z,11.13
2022-12-11T09:33:30.122Z,10.57
2022-12-11T09:35:01.819Z,10.20
2022-12-11T09:36:37.179Z,11.30
2022-12-11T09:38:09.721Z,9.80
2022-12-11T09:39:41.687Z,11.03
2022-12-11T09:41:23.217Z,10.37
2022-12-11T09:43:34.435Z,10.20
2022-12-11T09:45:13.804Z,10.10
2022-12-11T09:46:46.814Z,10.13
2022-12-11T09:48:24.155Z,10.20
2022-12-11T09:50:03.656Z,10.33
2022-12-11T09:51:44.121Z,9.37
2022-12-11T09:53:36.824Z,9.90
2022-12-11T09:55:24.524Z,9.03
2022-12-11T09:57:24.185Z,9.60
2022-12-11T09:59:36.089Z,9.70
2022-12-11T10:01:13.182Z,9.90
2022-12-11T10:03:39.231Z,9.30
2022-12-11T10:05:27.095Z,9.67
2022-12-11T10:07:17.631Z,10.33
2022-12-11T10:08:52.616Z,10.83
2022-12-11T10:10:36.984Z,9.30
2022-12-11T10:12:27.806Z,10.30
2022-12-11T10:14:09.157Z,10.30
2022-12-11T10:15:53.675Z,9.77
2022-12-11T10:17:37.124Z,8.27
2022-12-11T10:19:22.154Z,9.27
2022-12-11T10:20:54.905Z,9.03
2022-12-11T10:22:31.582Z,8.80
2022-12-11T10:24:10.546Z,9.57
2022-12-11T10:25:59.142Z,9.00
2022-12-11T10:27:45.102Z,8.97
2022-12-11T10:29:22.381Z,9.27
2022-12-11T10:31:14.615Z,7.87
2022-12-11T10:33:14.363Z,9.00
2022-12-11T10:34:49.760Z,8.27
2022-12-11T10:36:32.850Z,8.43
2022-12-11T10:38:23.789Z,7.90
2022-12-11T10:39:58.624Z,8.17
2022-12-11T10:41:42.218Z,8.60
2022-12-11T10:43:14.422Z,7.10
2022-12-11T10:45:02.158Z,8.17
2022-12-11T10:46:34.248Z,7.70
2022-12-11T10:48:14.284Z,7.30
2022-12-11T10:49:58.433Z,7.70
2022-12-11T10:51:30.978Z,7.03
2022-12-11T10:53:02.814Z,7.37
2022-12-11T10:54:40.998Z,6.90
2022-12-11T10:56:13.989Z,7.67
2022-12-11T10:57:53.858Z,7.17
2022-12-11T10:59:33.086Z,7.00
2022-12-11T11:01:09.590Z,6.90
2022-12-11T11:02:45.501Z,7.90
2022-12-11T11:04:28.091Z,7.50
2022-12-11T11:06:27.686Z,7.67
2022-12-11T11:08:23.336Z,6.30
2022-12-11T11:10:12.803Z,7.27
2022-12-11T11:11:50.743Z,5.97
2022-12-11T11:13:28.258Z,6.07
2022-12-11T11:15:13.294Z,7.10
2022-12-11T11:16:48.434Z,6.70
2022-12-11T11:18:28.255Z,7.10
2022-12-11T11:20:14.393Z,6.50
2022-12-11T11:21:57.544Z,6.10
2022-12-11T11:23:30.795Z,6.63
2022-12-11T11:25:23.852Z,7.27
2022-12-11T11:27:13.091Z,7.33
2022-12-11T11:28:55.079Z,6.90
2022-12-11T11:30:30.718Z,6.03
2022-12-11T11:32:16.646Z,7.27
2022-12-11T11:33:57.328Z,6.87
2022-12-11T11:35:30.771Z,7.00
2022-12-11T11:37:06.546Z,7.10
2022-12-11T11:38:47.828Z,7.40
2022-12-11T11:40:25.841Z,7.20
2022-12-11T11:42:18.077Z,6.50
2022-12-11T11:43:56.945Z,6.80
2022-12-11T11:45:39.455Z,6.83
2022-12-11T11:47:17.473Z,7.37
2022-12-11T11:49:04.500Z,7.50
2022-12-11T11:50:45.476Z,7.33
2022-12-11T11:52:31.016Z,7.67
2022-12-11T11:54:29.349Z,7.40
2022-12-11T11:56:06.284Z,8.00
2022-12-11T11:58:07.887Z,7.50
2022-12-11T12:00:09.947Z,7.67
2022-12-11T12:01:45.075Z,8.00
2022-12-11T12:03:23.046Z,8.03
2022-12-11T12:04:55.007Z,8.70
2022-12-11T12:06:50.499Z,8.90
2022-12-11T12:08:44.594Z,7.87
2022-12-11T12:10:28.403Z,8.20
2022-12-11T12:12:27.446Z,9.60
2022-12-11T12:14:43.613Z,8.03
2022-12-11T12:16:50.525Z,7.60
2022-12-11T12:18:52.486Z,8.33
2022-12-11T12:20:48.638Z,8.73
2022-12-11T12:22:28.709Z,7.60
2022-12-11T12:24:29.118Z,7.73
2022-12-11T12:26:41.981Z,7.50
2022-12-11T12:28:34.403Z,8.20
2022-12-11T12:30:17.390Z,7.00
2022-12-11T12:32:29.647Z,7.53
2022-12-11T12:34:28.795Z,8.10
2022-12-11T12:36:31.863Z,6.83
2022-12-11T12:38:30.439Z,7.87
2022-12-11T12:40:17.157Z,7.70
2022-12-11T12:42:07.898Z,7.80
2022-12-11T12:44:05.035Z,7.20
2022-12-11T12:45:38.382Z,7.13
2022-12-11T12:47:18.742Z,7.40
2022-12-11T12:48:57.124Z,7.80
2022-12-11T12:50:37.693Z,7.33
2022-12-11T12:52:42.139Z,6.73
2022-12-11T12:54:19.965Z,6.70
2022-12-11T12:55:55.027Z,7.93
2022-12-11T12:57:27.519Z,6.40
2022-12-11T12:58:59.786Z,7.07
2022-12-11T13:00:35.890Z,6.40
2022-12-11T13:02:15.173Z,6.60
2022-12-11T13:04:07.340Z,6.50
2022-12-11T13:05:48.409Z,7.13
2022-12-11T13:07:29.362Z,6.60
2022-12-11T13:09:31.395Z,6.70
2022-12-11T13:11:15.308Z,6.77
2022-12-11T13:12:47.605Z,7.57
2022-12-11T13:14:19.449Z,6.80
2022-12-11T13:15:51.975Z,6.93
2022-12-11T13:17:39.634Z,6.17
2022-12-11T13:19:20.629Z,6.60
2022-12-11T13:20:53.277Z,6.73
2022-12-11T13:22:25.745Z,6.53
2022-12-11T13:24:17.093Z,6.10
2022-12-11T13:26:00.605Z,6.47
2022-12-11T13:27:35.493Z,6.77
2022-12-11T13:29:37.816Z,6.80
2022-12-11T13:31:16.259Z,6.47
2022-12-11T13:33:05.451Z,6.80
2022-12-11T13:34:41.043Z,6.17
2022-12-11T13:36:18.994Z,6.03
2022-12-11T13:38:12.054Z,6.23
2022-12-11T13:39:47.268Z,5.90
2022-12-11T13:41:20.477Z,6.50
2022-12-11T13:42:57.016Z,5.57
2022-12-11T13:44:39.533Z,6.40
2022-12-11T13:46:14.883Z,6.00
2022-12-11T13:47:48.135Z,5.60
2022-12-11T13:49:24.408Z,6.03
2022-12-11T13:50:57.792Z,6.60
2022-12-11T13:52:39.139Z,5.73
2022-12-11T13:54:18.399Z,6.17
2022-12-11T13:56:02.389Z,6.57
2022-12-11T13:57:34.801Z,5.47
2022-12-11T13:59:35.546Z,5.83
2022-12-11T14:01:26.558Z,6.27
2022-12-11T14:03:05.096Z,5.50
2022-12-11T14:04:41.781Z,5.27
2022-12-11T14:06:20.216Z,5.93
2022-12-11T14:07:55.684Z,5.70
2022-12-11T14:09:30.076Z,6.23
2022-12-11T14:11:03.268Z,6.80
2022-12-11T14:12:42.260Z,6.10
2022-12-11T14:14:45.590Z,5.70
2022-12-11T14:16:23.700Z,5.97
2022-12-11T14:18:00.457Z,5.60
2022-12-11T14:19:33.624Z,6.30
2022-12-11T14:21:08.298Z,5.60
2022-12-11T14:22:41.636Z,5.67
2022-12-11T14:24:15.540Z,6.33
2022-12-11T14:25:58.388Z,5.60
2022-12-11T14:27:32.661Z,6.67
2022-12-11T14:29:13.196Z,5.80
2022-12-11T14:31:01.747Z,6.07
2022-12-11T14:32:44.070Z,6.03
2022-12-11T14:34:25.531Z,6.60
2022-12-11T14:35:58.527Z,6.60
2022-12-11T14:37:32.558Z,6.73
2022-12-11T14:39:16.482Z,6.73
2022-12-11T14:40:53.685Z,6.53
2022-12-11T14:42:38.590Z,7.00
2022-12-11T14:44:19.470Z,6.70
2022-12-11T14:45:57.971Z,6.33
2022-12-11T14:47:38.138Z,6.60
2022-12-11T14:49:47.234Z,6.90
2022-12-11T14:51:20.520Z,7.10
2022-12-11T14:52:58.540Z,6.20
2022-12-11T14:54:40.984Z,7.03
2022-12-11T14:56:26.337Z,6.67
2022-12-11T14:58:21.757Z,6.80
2022-12-11T14:59:56.074Z,5.97
2022-12-11T15:01:34.032Z,6.27
2022-12-11T15:03:10.073Z,6.30
2022-12-11T15:04:50.154Z,6.37
2022-12-11T15:06:28.919Z,6.67
2022-12-11T15:08:02.335Z,6.00
2022-12-11T15:09:35.879Z,6.80
2022-12-11T15:11:13.342Z,6.83
2022-12-11T15:12:46.038Z,6.53
2022-12-11T15:14:21.698Z,6.83
2022-12-11T15:15:56.073Z,6.60
2022-12-11T15:17:28.915Z,6.90
2022-12-11T15:19:01.955Z,7.40
2022-12-11T15:20:33.891Z,6.40
2022-12-11T15:22:12.640Z,6.10
2022-12-11T15:23:55.370Z,6.80
2022-12-11T15:25:29.262Z,6.80
2022-12-11T15:27:01.600Z,6.73
2022-12-11T15:28:38.268Z,6.73
2022-12-11T15:30:21.069Z,5.80
2022-12-11T15:32:15.972Z,6.90
2022-12-11T15:33:50.679Z,7.53
2022-12-11T15:35:24.754Z,6.47
2022-12-11T15:36:56.687Z,6.20
2022-12-11T15:38:31.161Z,6.00
2022-12-11T15:40:07.993Z,7.07
2022-12-11T15:41:45.824Z,5.73
2022-12-11T15:43:18.388Z,6.77
2022-12-11T15:44:50.726Z,6.33
2022-12-11T15:46:23.030Z,6.50
2022-12-11T15:47:57.553Z,6.03
2022-12-11T15:49:30.983Z,6.47
2022-12-11T15:51:03.652Z,6.93
2022-12-11T15:52:36.892Z,6.67
2022-12-11T15:54:09.692Z,6.83
2022-12-11T15:55:41.607Z,6.60
2022-12-11T15:57:24.035Z,7.30
2022-12-11T15:59:04.428Z,6.73
2022-12-11T16:00:36.071Z,6.83
2022-12-11T16:02:13.939Z,6.70
2022-12-11T16:03:45.948Z,6.73
2022-12-11T16:05:17.647Z,7.60
2022-12-11T16:06:49.442Z,6.97
2022-12-11T16:08:26.335Z,6.17
2022-12-11T16:10:02.146Z,6.70
2022-12-11T16:11:35.498Z,6.33
2022-12-11T16:13:07.917Z,6.83
2022-12-11T16:14:45.163Z,6.90
2022-12-11T16:16:17.556Z,6.90
2022-12-11T16:17:58.982Z,6.00
2022-12-11T16:19:31.184Z,6.17
2022-12-11T16:21:05.596Z,6.30
2022-12-11T16:22:40.728Z,6.80
2022-12-11T16:24:12.753Z,6.80
2022-12-11T16:25:46.462Z,6.90
2022-12-11T16:27:22.931Z,7.10
2022-12-11T16:28:55.427Z,7.20
2022-12-11T16:30:30.367Z,6.90
2022-12-11T16:32:02.281Z,7.37
2022-12-11T16:33:34.528Z,6.53
2022-12-11T16:35:06.919Z,7.50
2022-12-11T16:36:38.694Z,6.93
2022-12-11T16:38:14.641Z,7.37
2022-12-11T16:39:46.959Z,7.03
2022-12-11T16:41:19.567Z,6.80
2022-12-11T16:42:52.266Z,7.10
2022-12-11T16:44:26.936Z,7.70
2022-12-11T16:46:02.433Z,6.90
2022-12-11T16:47:34.506Z,6.80
2022-12-11T16:49:06.396Z,7.10
2022-12-11T16:50:41.470Z,7.73
2022-12-11T16:52:16.424Z,7.27
2022-12-11T16:53:52.222Z,7.37
2022-12-11T16:55:25.186Z,7.50
2022-12-11T16:56:57.566Z,7.43
2022-12-11T16:58:35.653Z,7.70
2022-12-11T17:00:10.317Z,7.43
2022-12-11T17:01:44.788Z,8.10
2022-12-11T17:03:17.340Z,7.70
2022-12-11T17:04:53.621Z,8.10
2022-12-11T17:06:26.943Z,8.87
2022-12-11T17:07:58.895Z,8.20
2022-12-11T17:09:31.560Z,8.03
2022-12-11T17:11:08.320Z,7.70
2022-12-11T17:12:40.756Z,8.43
2022-12-11T17:14:14.084Z,8.23
2022-12-11T17:15:46.541Z,7.70
2022-12-11T17:17:18.585Z,7.83
2022-12-11T17:18:50.472Z,8.47
2022-12-11T17:20:22.258Z,7.60
2022-12-11T17:21:55.614Z,8.57
2022-12-11T17:23:27.899Z,8.17
2022-12-11T17:25:00.223Z,8.10
2022-12-11T17:26:34.255Z,8.20
2022-12-11T17:28:07.025Z,7.93
2022-12-11T17:29:39.072Z,7.93
2022-12-11T17:31:17.696Z,7.70
2022-12-11T17:32:53.305Z,7.33
2022-12-11T17:34:33.117Z,8.17
2022-12-11T17:36:08.807Z,7.53
2022-12-11T17:37:41.051Z,8.00
2022-12-11T17:39:13.976Z,7.90
2022-12-11T17:40:45.854Z,7.70
2022-12-11T17:42:18.101Z,8.53
2022-12-11T17:43:53.927Z,7.57
2022-12-11T17:45:27.040Z,8.67
2022-12-11T17:47:00.427Z,7.67
2022-12-11T17:48:33.782Z,8.23
2022-12-11T17:50:06.907Z,8.20
2022-12-11T17:51:38.994Z,8.20
2022-12-11T17:53:17.452Z,8.33
2022-12-11T17:54:52.042Z,7.83
2022-12-11T17:56:26.073Z,8.07
2022-12-11T17:57:58.415Z,8.70
2022-12-11T17:59:30.283Z,8.00
2022-12-11T18:01:08.224Z,8.90
2022-12-11T18:02:40.320Z,8.60
2022-12-11T18:04:13.002Z,9.07
2022-12-11T18:05:51.242Z,8.53
2022-12-11T18:07:25.219Z,8.50
2022-12-11T18:09:02.825Z,8.87
2022-12-11T18:10:38.888Z,9.00
2022-12-11T18:12:11.124Z,9.27
2022-12-11T18:13:45.341Z,8.67
2022-12-11T18:15:23.729Z,9.63
2022-12-11T18:16:58.696Z,8.67
2022-12-11T18:18:40.009Z,8.43
2022-12-11T18:20:17.206Z,9.23
2022-12-11T18:21:51.964Z,8.83
2022-12-11T18:23:24.339Z,8.70
2022-12-11T18:24:59.032Z,9.13
2022-12-11T18:26:31.208Z,8.77
2022-12-11T18:28:03.694Z,8.80
2022-12-11T18:29:35.531Z,9.87
2022-12-11T18:31:09.510Z,8.93
2022-12-11T18:32:42.972Z,10.40
2022-12-11T18:34:18.273Z,8.57
2022-12-11T18:35:51.853Z,9.40
2022-12-11T18:37:27.888Z,9.00
2022-12-11T18:39:00.900Z,8.73
2022-12-11T18:40:32.968Z,8.23
2022-12-11T18:42:31.847Z,8.73
2022-12-11T18:43:57.512Z,9.03
2022-12-11T18:45:30.449Z,8.80
2022-12-11T18:47:02.410Z,8.83
2022-12-11T18:48:35.608Z,8.47
2022-12-11T18:50:09.573Z,8.73
2022-12-11T18:51:43.971Z,8.63
2022-12-11T18:53:18.160Z,9.37
2022-12-11T18:54:52.556Z,7.87
2022-12-11T18:56:24.764Z,9.17
2022-12-11T18:57:57.077Z,8.50
2022-12-11T18:59:32.916Z,9.30
2022-12-11T19:01:21.732Z,8.40
2022-12-11T19:02:53.545Z,8.80
2022-12-11T19:04:25.696Z,8.20
2022-12-11T19:06:04.995Z,8.83
2022-12-11T19:07:36.992Z,9.53
2022-12-11T19:09:12.539Z,9.57
2022-12-11T19:10:50.148Z,8.63
2022-12-11T19:12:22.579Z,9.20
2022-12-11T19:14:02.411Z,9.47
2022-12-11T19:15:38.915Z,8.70
2022-12-11T19:17:11.860Z,8.43
2022-12-11T19:18:44.919Z,9.30
2022-12-11T19:20:47.342Z,8.80
2022-12-11T19:22:10.522Z,8.97
2022-12-11T19:23:43.666Z,8.63
2022-12-11T19:25:16.665Z,8.80
2022-12-11T19:26:49.753Z,9.23
2022-12-11T19:28:22.758Z,8.60
2022-12-11T19:29:54.786Z,8.57
2022-12-11T19:31:30.059Z,9.33
2022-12-11T19:33:02.147Z,8.50
2022-12-11T19:34:34.162Z,8.80
2022-12-11T19:36:10.035Z,8.77
2022-12-11T19:37:42.587Z,8.53
2022-12-11T19:39:15.658Z,8.00
2022-12-11T19:40:48.465Z,8.50
2022-12-11T19:42:21.564Z,8.60
2022-12-11T19:43:58.219Z,8.50
2022-12-11T19:45:30.040Z,8.73
2022-12-11T19:47:02.183Z,8.67
2022-12-11T19:48:37.376Z,8.90
2022-12-11T19:50:10.170Z,8.70
2022-12-11T19:51:45.695Z,8.93
2022-12-11T19:53:20.877Z,8.80
2022-12-11T19:54:53.974Z,9.33
2022-12-11T19:56:26.732Z,8.40
2022-12-11T19:58:01.963Z,9.50
2022-12-11T19:59:34.748Z,9.17
2022-12-11T20:01:07.725Z,8.73
2022-12-11T20:02:44.016Z,10.17
2022-12-11T20:04:20.213Z,9.47
2022-12-11T20:05:52.122Z,8.90
2022-12-11T20:07:30.511Z,9.17
2022-12-11T20:09:05.473Z,9.37
2022-12-11T20:10:40.387Z,9.57
2022-12-11T20:12:14.241Z,9.30
2022-12-11T20:13:58.424Z,8.60
2022-12-11T20:15:35.005Z,8.43
2022-12-11T20:17:14.273Z,9.70
2022-12-11T20:18:47.119Z,9.50
2022-12-11T20:20:19.470Z,8.43
2022-12-11T20:21:51.622Z,8.90
2022-12-11T20:23:26.531Z,9.57
2022-12-11T20:25:00.198Z,8.77
2022-12-11T20:26:35.943Z,9.87
2022-12-11T20:28:07.836Z,9.00
2022-12-11T20:29:41.818Z,8.87
2022-12-11T20:31:20.157Z,9.47
2022-12-11T20:32:52.870Z,9.23
2022-12-11T20:34:26.009Z,9.20
2022-12-11T20:35:58.015Z,9.60
2022-12-11T20:37:30.043Z,8.90
2022-12-11T20:39:02.925Z,8.47
2022-12-11T20:40:35.059Z,8.90
2022-12-11T20:42:10.167Z,9.60
2022-12-11T20:43:42.767Z,10.00
2022-12-11T20:45:14.791Z,10.20
2022-12-11T20:46:50.750Z,9.00
2022-12-11T20:48:26.415Z,9.60
2022-12-11T20:50:02.056Z,9.23
2022-12-11T20:51:34.007Z,9.90
2022-12-11T20:53:09.632Z,8.93
2022-12-11T20:54:42.327Z,9.03
2022-12-11T20:56:20.017Z,9.60
2022-12-11T20:57:55.659Z,8.93
2022-12-11T20:59:27.771Z,10.63
2022-12-11T21:00:59.579Z,8.67
2022-12-11T21:02:32.005Z,9.10
2022-12-11T21:04:05.508Z,9.57
2022-12-11T21:05:49.300Z,8.83
2022-12-11T21:07:21.763Z,9.83